Time;durP1;ratioP1;P1;durP2;ratioP2;P2;SDS_P1;SDS_P2;PMS_P1;PMS_P2;Temp;Humidity;BMP_temperature;BMP_pressure;BME280_temperature;BME280_humidity;BME280_pressure;Samples;Min_cycle;Max_cycle;Signal;HPM_P1;HPM_P2
2021/01/13 00:03:43;;;;;;;0.47;0.47;;;4.30;99.90;;;;;;20546508;28;21077;-76
2021/01/13 00:13:45;;;;;;;3.60;3.23;;;4.40;99.90;;;;;;20536444;28;20277;-76
2021/01/13 00:23:49;;;;;;;1.47;1.37;;;4.30;99.90;;;;;;20545405;28;20201;-77
2021/01/13 00:33:51;;;;;;;0.50;0.50;;;4.40;99.90;;;;;;20512113;28;20227;-76
2021/01/13 00:43:55;;;;;;;1.47;0.57;;;4.30;99.90;;;;;;20544529;28;20196;-76
2021/01/13 00:53:58;;;;;;;0.63;0.63;;;4.40;99.90;;;;;;20541071;28;20353;-77
2021/01/13 01:04:02;;;;;;;2.93;0.93;;;4.30;99.90;;;;;;20544331;28;20204;-74
2021/01/13 01:14:05;;;;;;;0.60;0.47;;;4.50;99.90;;;;;;20545476;28;20246;-76
2021/01/13 01:24:09;;;;;;;4.70;2.10;;;3.90;99.90;;;;;;20542843;28;20196;-76
2021/01/13 01:34:12;;;;;;;0.47;0.47;;;4.00;99.90;;;;;;20540471;28;20196;-76
2021/01/13 01:44:15;;;;;;;0.50;0.50;;;3.80;99.90;;;;;;20540392;28;20204;-77
2021/01/13 01:54:23;;;;;;;1.90;1.20;;;4.10;99.90;;;;;;20538786;28;20231;-75
2021/01/13 02:04:30;;;;;;;2.97;1.37;;;4.20;99.90;;;;;;20539093;28;20196;-75
2021/01/13 02:14:33;;;;;;;2.30;1.70;;;4.30;99.90;;;;;;20537922;28;20228;-78
2021/01/13 02:25:20;;;;;;;0.57;0.57;;;4.40;99.90;;;;;;20537456;28;20216;-77
2021/01/13 02:35:25;;;;;;;0.80;0.70;;;4.20;99.90;;;;;;20538947;28;20200;-76
2021/01/13 02:45:30;;;;;;;3.80;2.33;;;3.90;99.90;;;;;;20536753;28;20243;-77
2021/01/13 02:55:36;;;;;;;0.40;0.40;;;3.70;99.90;;;;;;20537290;28;20383;-78
2021/01/13 03:05:39;;;;;;;0.70;0.70;;;3.20;99.90;;;;;;20535190;28;20708;-77
2021/01/13 03:15:42;;;;;;;2.83;0.97;;;4.00;99.90;;;;;;20553072;28;21077;-77
2021/01/13 03:25:52;;;;;;;1.23;0.93;;;4.50;99.90;;;;;;20617874;23;20297;-78
2021/01/13 03:35:59;;;;;;;1.23;0.97;;;4.40;99.90;;;;;;20632071;28;20196;-77
2021/01/13 03:46:05;;;;;;;1.90;1.23;;;3.90;99.90;;;;;;20631726;28;20710;-79
2021/01/13 03:56:13;;;;;;;2.37;1.83;;;4.00;99.90;;;;;;20611425;28;20203;-78
2021/01/13 04:06:16;;;;;;;2.10;1.90;;;4.40;99.90;;;;;;20582369;23;20248;-69
2021/01/13 04:16:23;;;;;;;1.00;0.87;;;4.40;99.90;;;;;;20542386;28;20203;-68
2021/01/13 04:26:26;;;;;;;2.47;1.47;;;4.40;99.90;;;;;;20498757;28;20563;-69
2021/01/13 04:36:35;;;;;;;0.40;0.40;;;4.60;99.90;;;;;;20488529;28;20207;-69
2021/01/13 04:46:39;;;;;;;1.07;1.07;;;4.30;99.90;;;;;;20544662;28;20239;-70
2021/01/13 04:57:17;;;;;;;2.63;1.90;;;4.30;99.90;;;;;;20542310;28;20649;-68
2021/01/13 05:07:30;;;;;;;1.20;1.20;;;4.20;99.90;;;;;;20536193;23;20326;-75
2021/01/13 05:17:35;;;;;;;6.97;1.77;;;4.30;99.90;;;;;;20534273;28;20200;-76
2021/01/13 05:28:04;;;;;;;0.37;0.37;;;4.20;99.90;;;;;;20519927;28;20228;-78
2021/01/13 05:38:17;;;;;;;0.20;0.10;;;4.00;99.90;;;;;;20480111;28;20607;-77
2021/01/13 05:48:24;;;;;;;1.07;1.00;;;4.30;99.90;;;;;;20457779;29;20254;-74
2021/01/13 05:58:29;;;;;;;2.23;1.80;;;4.40;99.90;;;;;;20453810;29;20199;-76
2021/01/13 06:08:33;;;;;;;1.57;1.03;;;4.20;99.90;;;;;;20453077;28;20236;-75
2021/01/13 06:18:40;;;;;;;0.47;0.47;;;4.00;99.90;;;;;;20437695;29;20211;-71
2021/01/13 06:29:30;;;;;;;9.10;1.27;;;4.00;99.90;;;;;;20453716;29;20251;-74
2021/01/13 06:39:34;;;;;;;0.60;0.60;;;4.20;99.90;;;;;;20418368;29;20215;-76
2021/01/13 06:49:36;;;;;;;1.80;0.60;;;4.20;99.90;;;;;;20451265;28;20228;-76
2021/01/13 06:59:40;;;;;;;0.50;0.43;;;4.10;99.90;;;;;;20448365;29;20628;-76
2021/01/13 07:09:45;;;;;;;0.37;0.33;;;4.20;99.90;;;;;;20448477;29;20325;-73
2021/01/13 07:19:50;;;;;;;1.23;0.87;;;4.40;99.90;;;;;;20503384;28;20203;-77
2021/01/13 07:29:57;;;;;;;1.90;1.27;;;4.40;99.90;;;;;;20512897;28;20343;-79
2021/01/13 07:40:32;;;;;;;0.70;0.67;;;4.50;99.90;;;;;;20506438;28;20658;-76
2021/01/13 07:50:40;;;;;;;6.03;2.83;;;4.60;99.90;;;;;;20508504;28;20257;-76
2021/01/13 08:01:12;;;;;;;0.93;0.77;;;4.80;99.90;;;;;;20536215;28;20228;-74
2021/01/13 08:11:42;;;;;;;2.83;1.13;;;5.10;99.90;;;;;;20537558;28;20266;-75
2021/01/13 08:21:56;;;;;;;2.23;1.87;;;5.20;99.90;;;;;;20544847;28;20696;-74
2021/01/13 08:32:06;;;;;;;2.30;2.10;;;5.40;99.90;;;;;;20540453;28;20760;-75
2021/01/13 08:42:21;;;;;;;2.70;1.60;;;5.50;99.90;;;;;;20507671;28;20228;-73
2021/01/13 08:52:26;;;;;;;1.27;0.87;;;5.70;99.90;;;;;;20487828;28;20236;-74
2021/01/13 09:02:54;;;;;;;2.43;0.70;;;6.10;99.90;;;;;;20535294;28;20223;-71
2021/01/13 09:12:58;;;;;;;2.17;1.97;;;6.50;99.90;;;;;;20529365;28;20224;-73
2021/01/13 09:23:03;;;;;;;2.20;0.73;;;6.60;99.90;;;;;;20520032;28;20323;-71
2021/01/13 09:33:09;;;;;;;0.83;0.83;;;6.90;99.90;;;;;;20532911;28;20220;-72
2021/01/13 09:43:25;;;;;;;6.10;1.03;;;7.40;99.90;;;;;;20533962;28;20203;-73
2021/01/13 09:53:31;;;;;;;1.83;1.37;;;7.60;99.90;;;;;;20533623;28;20507;-74
2021/01/13 10:03:34;;;;;;;2.70;1.67;;;7.80;99.90;;;;;;20512321;28;20303;-70
2021/01/13 10:13:40;;;;;;;1.70;1.07;;;8.30;99.90;;;;;;20522503;28;20478;-73
2021/01/13 10:23:44;;;;;;;4.23;1.70;;;8.70;99.90;;;;;;20448540;28;20216;-75
2021/01/13 10:33:51;;;;;;;1.07;0.57;;;9.40;99.90;;;;;;20454511;28;20246;-76
2021/01/13 10:44:10;;;;;;;0.47;0.43;;;10.30;99.90;;;;;;20524887;28;20286;-72
2021/01/13 10:54:18;;;;;;;2.27;1.50;;;10.30;99.90;;;;;;20524128;28;20216;-74
2021/01/13 11:04:30;;;;;;;4.60;2.00;;;10.90;99.90;;;;;;20528985;28;20240;-74
2021/01/13 11:14:37;;;;;;;0.87;0.67;;;11.40;99.90;;;;;;20512999;28;20219;-75
2021/01/13 11:24:42;;;;;;;0.67;0.63;;;12.30;99.90;;;;;;20528805;28;20192;-72
2021/01/13 11:34:49;;;;;;;0.73;0.73;;;12.40;99.90;;;;;;20539352;28;20358;-75
2021/01/13 11:45:05;;;;;;;3.20;0.73;;;13.20;99.90;;;;;;20545380;28;20204;-75
2021/01/13 11:55:10;;;;;;;7.20;2.53;;;13.90;99.90;;;;;;20539488;28;20235;-75
2021/01/13 12:05:40;;;;;;;2.57;1.57;;;14.20;99.90;;;;;;20539267;28;20228;-72
2021/01/13 12:15:53;;;;;;;0.97;0.70;;;14.90;99.90;;;;;;20540098;28;20211;-74
2021/01/13 12:26:14;;;;;;;4.30;2.20;;;15.20;99.90;;;;;;20534046;28;20471;-75
2021/01/13 12:36:22;;;;;;;3.13;0.97;;;15.30;99.90;;;;;;20535819;28;20732;-77
2021/01/13 12:46:30;;;;;;;3.43;1.53;;;15.70;99.90;;;;;;20539173;28;20643;-74
2021/01/13 12:56:34;;;;;;;2.07;1.17;;;16.40;99.90;;;;;;20537648;28;20200;-77
2021/01/13 13:06:38;;;;;;;2.80;0.77;;;16.30;99.90;;;;;;20517365;28;20616;-76
2021/01/13 13:16:43;;;;;;;2.57;1.40;;;16.70;99.90;;;;;;20533685;28;20729;-75
2021/01/13 13:26:45;;;;;;;3.10;1.97;;;16.70;99.90;;;;;;20530174;28;20333;-74
2021/01/13 13:36:50;;;;;;;1.10;0.83;;;17.20;99.90;;;;;;20511775;28;20727;-76
2021/01/13 13:46:53;;;;;;;4.20;0.80;;;17.40;99.90;;;;;;20533830;28;20228;-76
2021/01/13 13:56:57;;;;;;;2.47;1.37;;;17.00;99.90;;;;;;20531185;28;20658;-74
2021/01/13 14:06:59;;;;;;;3.37;1.50;;;17.60;99.90;;;;;;20534681;28;20812;-78
2021/01/13 14:17:03;;;;;;;2.87;1.53;;;18.10;99.90;;;;;;20517341;28;20207;-81
2021/01/13 14:27:06;;;;;;;2.83;2.00;;;18.80;99.90;;;;;;20533844;28;20356;-81
2021/01/13 14:37:12;;;;;;;1.47;0.90;;;19.00;99.90;;;;;;20538220;28;20204;-81
2021/01/13 14:47:15;;;;;;;1.60;1.33;;;19.40;99.90;;;;;;20536984;28;20334;-79
2021/01/13 14:57:29;;;;;;;2.47;1.33;;;19.20;99.90;;;;;;20534224;28;20188;-81
2021/01/13 15:07:32;;;;;;;2.40;0.70;;;18.20;99.90;;;;;;20545890;28;20294;-79
2021/01/13 15:17:36;;;;;;;2.33;1.27;;;17.70;99.90;;;;;;20546934;28;20715;-79
2021/01/13 15:27:39;;;;;;;2.30;1.00;;;18.00;99.90;;;;;;20546394;28;20670;-79
2021/01/13 15:37:44;;;;;;;1.83;1.33;;;17.20;99.90;;;;;;20535970;28;20235;-79
2021/01/13 15:47:51;;;;;;;2.23;1.00;;;16.40;99.90;;;;;;20532664;28;20195;-80
2021/01/13 15:57:56;;;;;;;0.97;0.97;;;15.90;99.90;;;;;;20539888;28;20279;-78
2021/01/13 16:08:00;;;;;;;3.57;2.37;;;14.90;99.90;;;;;;20503720;28;20224;-77
2021/01/13 16:18:04;;;;;;;1.87;1.77;;;13.80;99.90;;;;;;20540841;28;20232;-74
2021/01/13 16:28:07;;;;;;;3.80;1.90;;;12.20;99.90;;;;;;20535600;28;21054;-75
2021/01/13 16:38:12;;;;;;;7.97;1.60;;;11.50;99.90;;;;;;20516811;28;20243;-75
2021/01/13 16:48:15;;;;;;;2.27;1.37;;;11.20;99.90;;;;;;20536186;28;20204;-76
2021/01/13 16:58:22;;;;;;;3.83;1.63;;;10.80;99.90;;;;;;20532785;28;20245;-72
2021/01/13 17:08:25;;;;;;;2.07;1.00;;;10.60;99.90;;;;;;20516222;28;20228;-75
2021/01/13 17:18:30;;;;;;;2.27;1.17;;;10.40;99.90;;;;;;20530124;28;20267;-76
2021/01/13 17:28:35;;;;;;;2.83;1.30;;;10.20;99.90;;;;;;20533727;28;20215;-83
2021/01/13 17:38:40;;;;;;;3.33;1.70;;;10.10;99.90;;;;;;20521992;28;20586;-77
2021/01/13 17:48:43;;;;;;;2.93;1.70;;;9.90;99.90;;;;;;20529108;28;20204;-80
2021/01/13 17:58:47;;;;;;;1.13;0.90;;;9.70;99.90;;;;;;20537689;28;20694;-78
2021/01/13 18:08:50;;;;;;;4.00;1.67;;;9.40;99.90;;;;;;20533972;28;20287;-76
2021/01/13 18:18:54;;;;;;;2.13;1.53;;;9.30;99.90;;;;;;20535816;28;20223;-80
2021/01/13 18:28:57;;;;;;;3.37;1.47;;;9.20;99.90;;;;;;20530857;28;20200;-81
2021/01/13 18:39:01;;;;;;;0.87;0.87;;;9.10;99.90;;;;;;20530057;28;20228;-82
2021/01/13 18:49:04;;;;;;;1.80;1.70;;;9.20;99.90;;;;;;20530476;28;20654;-81
2021/01/13 18:59:09;;;;;;;1.97;1.80;;;9.00;99.90;;;;;;20531931;28;20684;-80
2021/01/13 19:09:12;;;;;;;2.90;1.23;;;8.90;99.90;;;;;;20528937;28;20235;-80
2021/01/13 19:19:16;;;;;;;2.53;1.70;;;8.80;99.90;;;;;;20528764;28;20231;-80
2021/01/13 19:29:19;;;;;;;2.93;2.03;;;8.60;99.90;;;;;;20543260;28;20529;-81
2021/01/13 19:39:24;;;;;;;1.10;1.00;;;8.40;99.90;;;;;;20521416;28;20259;-83
2021/01/13 19:49:26;;;;;;;5.93;2.40;;;8.50;99.90;;;;;;20508277;28;20294;-83
2021/01/13 19:59:30;;;;;;;1.53;1.30;;;8.50;99.90;;;;;;20508925;28;20657;-79
2021/01/13 20:09:33;;;;;;;1.90;1.80;;;8.30;99.90;;;;;;20542422;28;20641;-78
2021/01/13 20:19:38;;;;;;;2.80;2.17;;;8.20;99.90;;;;;;20541395;28;20706;-81
2021/01/13 20:29:41;;;;;;;1.50;0.70;;;8.10;99.90;;;;;;20536409;28;20247;-78
2021/01/13 20:39:44;;;;;;;1.77;1.67;;;8.00;99.90;;;;;;20531636;28;20227;-80
2021/01/13 20:50:08;;;;;;;2.80;1.43;;;8.20;99.90;;;;;;22269171;23;20263;-74
2021/01/13 21:00:14;;;;;;;5.30;2.33;;;7.80;99.90;;;;;;20534524;28;20318;-78
2021/01/13 21:10:17;;;;;;;1.20;1.17;;;7.80;99.90;;;;;;20537027;28;20196;-78
2021/01/13 21:20:21;;;;;;;0.87;0.87;;;7.80;99.90;;;;;;20533934;28;20690;-77
2021/01/13 21:30:24;;;;;;;4.47;1.10;;;7.60;99.90;;;;;;20516071;28;20633;-79
2021/01/13 21:40:28;;;;;;;1.70;1.57;;;7.50;99.90;;;;;;20531622;28;20243;-80
2021/01/13 21:50:31;;;;;;;0.97;0.60;;;7.50;99.90;;;;;;20532862;28;20370;-80
2021/01/13 22:00:35;;;;;;;0.90;0.90;;;7.50;99.90;;;;;;20532447;28;20294;-76
2021/01/13 22:10:37;;;;;;;1.07;1.00;;;7.40;99.90;;;;;;20533788;28;20211;-75
2021/01/13 22:20:42;;;;;;;0.43;0.43;;;7.40;99.90;;;;;;20529873;28;20220;-76
2021/01/13 22:30:46;;;;;;;2.93;1.97;;;7.40;99.90;;;;;;20531181;28;20737;-75
2021/01/13 22:40:50;;;;;;;1.37;1.27;;;7.50;99.90;;;;;;20529959;28;20234;-78
2021/01/13 22:50:53;;;;;;;1.10;0.63;;;7.50;99.90;;;;;;20530597;28;20466;-81
2021/01/13 23:00:57;;;;;;;0.50;0.50;;;7.70;99.90;;;;;;20514226;28;20232;-81
2021/01/13 23:11:00;;;;;;;1.63;1.53;;;7.80;99.90;;;;;;20529931;28;20200;-80
2021/01/13 23:21:06;;;;;;;0.40;0.40;;;7.80;99.90;;;;;;20530008;28;20236;-76
2021/01/13 23:31:09;;;;;;;0.20;0.20;;;7.70;99.90;;;;;;20541090;28;20551;-79
2021/01/13 23:41:13;;;;;;;0.77;0.77;;;7.60;99.90;;;;;;20542903;28;20260;-79
2021/01/13 23:51:16;;;;;;;2.80;0.53;;;7.60;99.90;;;;;;20545716;28;20232;-83
